x

Santa Monica Basin - 33nm Wsw Of Santa Monica, Ca (46025) Wave Buoy

10:50 - Fri 6th May 2016 All times are PDT. -7 hours from GMT.

  • Sig Wave height 2.3ft
  • Swell Direction
  • Peak Period 14s
  • Average Period 8s
  • Wind
    4mph
  • Sea Temp 61°f
  • Aire Temp 59°f
  • Sea Pressure 1012.7mb
  • Santa Monica Basin - 33nm Wsw Of Santa Monica, Ca
  • Santa Monica Basin - 33nm Wsw Of Santa Monica, Ca

More Historic Weather Station data

Upgrade to MSW Pro to gain access to the past 30 days of data for over 8000 Wavebouys and Weather Stations around the globe.

Join Pro

Comparision Forecast

View Surf forecast
   
vie 05/06 10:50 2.5ft 14s 8s 4
mph
1012.7mb 61f 59f
9:50 2.5ft 14s 8s 2 4 mph 1012.4mb 60f 59f
8:50 2.5ft 14s 8s 4
mph
1012mb 60f 57f
7:50 2.5ft 13s 8s 7
mph
1011.9mb 60f 57f
5:50 2.5ft 15s 8s 4
mph
1010.7mb 60f 59f
4:50 2.5ft 13s 8s 4
mph
1010.4mb 60f 59f
3:50 2.5ft 14s 9s 7
mph
1010.6mb 60f 59f
2:50 3ft 14s 9s 4 7 mph 1010.9mb 60f 59f
1:50 3ft 14s 9s  -  2 mph 1011.5mb 60f 59f
12:50 3.5ft 14s 9s 4 7 mph 1011.7mb 61f 59f
jue 05/05 11:50 3ft 11s 9s 4
mph
1012mb 61f 59f
10:50 3.5ft 14s 10s 4
mph
1012.2mb 61f 60f
9:50 3.5ft 15s 10s 4
mph
1012mb 61f 60f
8:50 3.5ft 14s 9s 4
mph
1011.6mb 61f 60f
7:50 3ft 14s 9s 2 4 mph 1011.3mb 61f 60f
6:50 3.5ft 10s 9s 2 4 mph 1011.3mb 61f 60f
5:50 3.5ft 15s 10s 7
mph
1011.6mb 61f 60f
4:50 3ft 14s 10s 4 7 mph 1012mb 62f 60f
3:50 3ft 14s 10s 7 9 mph 1012.7mb 62f 60f
2:50 3ft 15s 10s 7 9 mph 1013.4mb 62f 60f
1:50 3.5ft 15s 10s 4 7 mph 1013.5mb 63f 60f
12:50 2.5ft 13s 10s 4 7 mph 1013.8mb 62f 60f
11:50 3ft 14s 10s 7
mph
1013.9mb 62f 61f
10:50 3ft 14s 10s 4 7 mph 1013.4mb 61f 60f
9:50 2.5ft 15s 10s 2
mph
1013.3mb 60f 60f
8:50 2.5ft 14s 10s  -  2 mph 1013.3mb 60f 59f
7:50 3ft 14s 11s 2
mph
1013.1mb 60f 59f
6:50 2.5ft 15s 10s 2 4 mph 1013mb 60f 59f
5:50 3ft 15s 9s 4 7 mph 1012.8mb 61f 59f
4:50 3ft 15s 10s 7 9 mph 1012.9mb 61f 58f
3:50 2.5ft 12s 9s 4 7 mph 1012.9mb 61f 59f
2:50 2.5ft 16s 9s 7
mph
1013.3mb 61f 58f
1:50 3ft 13s 10s 9 11 mph 1013.5mb 61f 59f
12:50 2.5ft 16s 9s 4 7 mph 1014mb 61f 59f
mié 05/04 11:50 3ft 15s 9s 7 9 mph 1014mb 61f 59f
10:50 3.5ft 12s 9s 4 7 mph 1014.2mb 61f 59f
9:50 3ft 13s 9s 4 7 mph 1014mb 61f 59f
8:50 3ft 12s 8s 7 9 mph 1013.5mb 61f 59f
7:50 2.5ft 13s 7s 9 11 mph 1013mb 60f 59f
6:50 2.5ft 12s 8s 9 11 mph 1012.7mb 61f 59f
5:50 3ft 12s 9s 11
mph
1012.6mb 61f 59f
4:50 3ft 13s 9s 9 13 mph 1012.9mb 61f 59f
3:50 2.5ft 16s 9s 9 11 mph 1013.3mb 61f 59f
2:50 2.5ft 12s 9s 9
mph
1014.3mb 62f 58f
1:50 3ft 13s 9s 7 9 mph 1014.8mb 62f 58f
12:50 2.5ft 13s 8s 4 7 mph 1015mb 61f 58f
11:50 3.5ft 14s 9s 4
mph
1015.1mb 61f 58f
10:50 3ft 14s 8s 4 7 mph 1014.9mb 60f 57f
9:50 2.5ft 14s 7s  -  2 mph 1014.9mb 60f 57f
8:50 3ft 14s 6s 4 7 mph 1015.1mb 60f 56f
7:50 3ft 13s 7s 9 11 mph 1015.1mb 60f 56f
6:50 3.5ft 13s 7s 4 9 mph 1014.1mb 60f 56f
5:50 3.5ft 13s 7s 4 7 mph 1013.6mb 60f 56f
4:50 3.5ft 13s 8s 7 9 mph 1013.7mb 61f 56f
3:50 3ft 13s 7s 4 9 mph 1013.7mb 61f 56f
2:50 3.5ft 14s 7s 7 11 mph 1014.1mb 61f 56f
1:50 3.5ft 14s 7s 7 11 mph 1014.8mb 61f 56f
12:50 3.5ft 13s 7s 4 7 mph 1014.9mb 61f 57f
mar 05/03 11:50 3.5ft 14s 7s 2 4 mph 1014.9mb 60f 57f
10:50 3.5ft 14s 6s 4 7 mph 1014.8mb 60f 57f
9:50 3.5ft 14s 5s 2 4 mph 1014.4mb 60f 57f
8:50 4.5ft 13s 5s 2 4 mph 1013.6mb 60f 57f
7:50 4ft 14s 6s 9 11 mph 1013.2mb 60f 57f
6:50 3.5ft 14s 6s 13 16 mph 1013.1mb 60f 58f
5:50 3.5ft 14s 6s 11 16 mph 1012.8mb 60f 58f
4:50 3.5ft 14s 6s 16 18 mph 1013.4mb 61f 58f
3:50 3.5ft 14s 7s 13 16 mph 1014mb 62f 58f
2:50 3.5ft 14s 8s 9 13 mph 1014.3mb 62f 58f
1:50 3ft 14s 7s 7 9 mph 1014.9mb 62f 58f
12:50 3ft 14s 7s 11
mph
1015.5mb 61f 58f
11:50 3ft 14s 7s 7 11 mph 1015.6mb 61f 58f
10:50 3.5ft 13s 7s 7 9 mph 1015.9mb 61f 58f
9:50 3.5ft 14s 7s 7 9 mph 1015.7mb 61f 58f
8:50 3.5ft 13s 7s 4 7 mph 1015.5mb 61f 58f
7:50 3.5ft 14s 7s 7 9 mph 1015.1mb 61f 59f
5:50 3ft 15s 6s 4 7 mph 1014.3mb 61f 58f
4:50 3.5ft 13s 6s 4 9 mph 1014.1mb 61f 58f
3:50 3.5ft 14s 7s 7 9 mph 1014.4mb 61f 59f
2:50 3.5ft 14s 7s 9 11 mph 1014.6mb 60f 59f
1:50 3.5ft 14s 6s 9
mph
1015.1mb 61f 58f
12:50 3.5ft 14s 6s 7 9 mph 1015.5mb 61f 59f
lun 05/02 11:50 3.5ft 13s 5s 9 11 mph 1015.6mb 61f 58f
10:50 4.5ft 15s 5s 13 16 mph 1015.6mb 61f 59f
9:50 4ft 14s 5s 18 20 mph 1015.4mb 61f 58f
8:50 3.5ft 15s 5s 16 18 mph 1014.9mb 61f 58f
7:50 3.5ft 15s 5s 18 20 mph 1014.6mb 61f 59f